Time;durP1;ratioP1;P1;durP2;ratioP2;P2;SDS_P1;SDS_P2;PMS_P1;PMS_P2;Temp;Humidity;BMP_temperature;BMP_pressure;BME280_temperature;BME280_humidity;BME280_pressure;Samples;Min_cycle;Max_cycle;Signal;HPM_P1;HPM_P2
2024/01/19 00:02:30;;;;;;;;;21.40;16.20;;;;;13.32;41.86;97790.19;5028117;28;8969;-77
2024/01/19 00:04:59;;;;;;;;;19.00;16.20;;;;;13.26;42.02;97793.16;5026068;28;8981;-79
2024/01/19 00:07:28;;;;;;;;;17.40;17.40;;;;;13.22;42.08;97795.16;5022788;28;8846;-78
2024/01/19 00:09:57;;;;;;;;;17.80;13.60;;;;;13.28;42.06;97799.22;4995655;28;8863;-77
2024/01/19 00:12:26;;;;;;;;;16.60;16.60;;;;;13.14;42.27;97799.19;5021530;28;8860;-79
2024/01/19 00:14:56;;;;;;;;;18.00;17.00;;;;;13.30;41.89;97806.09;5074279;28;8883;-79
2024/01/19 00:17:25;;;;;;;;;20.00;15.60;;;;;13.36;41.85;97801.41;5072558;28;8857;-78
2024/01/19 00:19:54;;;;;;;;;15.40;14.60;;;;;13.23;42.24;97806.56;5057676;28;8874;-79
2024/01/19 00:22:23;;;;;;;;;12.60;12.60;;;;;13.36;42.08;97809.31;5037203;28;8896;-79
2024/01/19 00:24:52;;;;;;;;;16.40;12.60;;;;;13.41;41.80;97815.16;5047711;28;8842;-79
2024/01/19 00:27:21;;;;;;;;;16.40;15.80;;;;;13.39;41.92;97803.84;5051782;28;8842;-78
2024/01/19 00:29:50;;;;;;;;;17.20;14.40;;;;;13.41;41.92;97808.09;5064148;28;8958;-78
2024/01/19 00:32:20;;;;;;;;;12.80;12.40;;;;;13.50;41.87;97811.94;5067410;28;8834;-80
2024/01/19 00:34:49;;;;;;;;;14.00;13.00;;;;;13.56;41.53;97810.72;5043744;28;8925;-78
2024/01/19 00:37:18;;;;;;;;;14.20;13.40;;;;;13.49;41.71;97815.56;5069924;28;8848;-78
2024/01/19 00:39:47;;;;;;;;;14.00;12.80;;;;;13.46;41.88;97813.09;5030946;28;8842;-78
2024/01/19 00:42:16;;;;;;;;;11.60;11.60;;;;;13.50;41.82;97807.50;5049774;28;8834;-78
2024/01/19 00:44:45;;;;;;;;;11.80;11.00;;;;;13.45;42.01;97806.09;5007686;28;8879;-79
2024/01/19 00:47:14;;;;;;;;;10.60;10.00;;;;;13.67;41.44;97811.75;5023896;28;8843;-77
2024/01/19 00:49:44;;;;;;;;;11.60;11.00;;;;;13.58;41.62;97808.84;5007907;28;8863;-78
2024/01/19 00:52:14;;;;;;;;;13.00;12.60;;;;;13.33;42.19;97812.13;4991786;28;8859;-78
2024/01/19 00:54:42;;;;;;;;;9.40;9.00;;;;;13.22;42.38;97805.72;5019300;28;8852;-80
2024/01/19 00:57:11;;;;;;;;;13.40;12.60;;;;;13.34;42.09;97805.94;5030712;28;8875;-78
2024/01/19 00:59:40;;;;;;;;;11.80;11.20;;;;;13.33;42.25;97805.06;5045115;28;8853;-77
2024/01/19 01:02:09;;;;;;;;;16.60;12.80;;;;;13.31;42.39;97802.50;5010682;28;8895;-80
2024/01/19 01:04:38;;;;;;;;;12.40;11.40;;;;;13.14;42.74;97805.31;4994308;28;8860;-78
2024/01/19 01:07:09;;;;;;;;;12.60;10.20;;;;;13.04;43.04;97804.16;5027241;28;9011;-78
2024/01/19 01:09:38;;;;;;;;;12.60;12.00;;;;;13.12;42.65;97796.63;5016441;28;8855;-78
2024/01/19 01:12:07;;;;;;;;;10.80;9.60;;;;;13.29;42.07;97799.09;5007539;28;8918;-79
2024/01/19 01:14:35;;;;;;;;;13.20;11.60;;;;;13.17;42.53;97805.13;5007169;28;8851;-76
2024/01/19 01:17:05;;;;;;;;;9.80;9.80;;;;;13.30;42.05;97806.09;5047299;28;8850;-77
2024/01/19 01:19:33;;;;;;;;;9.00;9.00;;;;;13.28;42.36;97799.22;5049490;28;8907;-79
2024/01/19 01:22:02;;;;;;;;;12.20;8.60;;;;;13.37;42.03;97800.44;5014558;28;9556;-76
2024/01/19 01:24:33;;;;;;;;;12.60;10.40;;;;;13.51;41.84;97796.03;5049288;28;8856;-79
2024/01/19 01:27:02;;;;;;;;;7.40;7.40;;;;;13.44;41.94;97799.97;5048937;28;8856;-80
2024/01/19 01:29:31;;;;;;;;;10.60;10.00;;;;;13.51;42.04;97797.81;5049140;28;8845;-80
2024/01/19 01:32:00;;;;;;;;;10.80;9.80;;;;;13.63;41.99;97785.66;5049341;28;8853;-78
2024/01/19 01:34:29;;;;;;;;;9.80;8.40;;;;;13.66;42.40;97774.91;5031150;28;8868;-78
2024/01/19 01:36:59;;;;;;;;;8.40;8.20;;;;;13.34;42.86;97790.09;5031618;28;8862;-78
2024/01/19 01:39:28;;;;;;;;;10.20;9.00;;;;;13.27;43.26;97790.44;5050524;28;8824;-77
2024/01/19 01:41:59;;;;;;;;;8.00;6.40;;;;;13.34;43.18;97792.72;5018020;28;8933;-79
2024/01/19 01:44:28;;;;;;;;;8.40;7.80;;;;;13.23;43.54;97798.66;5068959;28;8878;-77
2024/01/19 01:46:57;;;;;;;;;7.00;7.00;;;;;13.30;43.21;97794.69;5068790;28;8840;-77
2024/01/19 01:49:26;;;;;;;;;9.00;7.60;;;;;13.37;43.08;97797.81;5047152;28;8850;-78
2024/01/19 01:51:56;;;;;;;;;6.80;6.60;;;;;13.53;42.95;97803.84;5048719;28;8872;-78
2024/01/19 01:54:26;;;;;;;;;40.00;36.00;;;;;13.40;42.94;97798.47;5049036;28;8885;-78
2024/01/19 01:56:56;;;;;;;;;10.60;10.60;;;;;13.35;42.98;97792.63;5014017;28;8845;-77
2024/01/19 01:59:26;;;;;;;;;8.00;7.00;;;;;13.45;42.67;97799.06;5048606;28;8873;-81
2024/01/19 02:01:55;;;;;;;;;13.80;12.80;;;;;13.39;42.94;97809.13;5047353;28;8862;-79
2024/01/19 02:04:24;;;;;;;;;7.60;5.60;;;;;13.43;42.64;97810.63;5049364;28;8850;-78
2024/01/19 02:06:54;;;;;;;;;6.40;6.40;;;;;13.59;42.20;97813.19;5030943;28;8866;-77
2024/01/19 02:09:23;;;;;;;;;5.20;5.00;;;;;13.72;41.86;97826.50;5032643;28;8854;-79
2024/01/19 02:11:53;;;;;;;;;10.20;8.60;;;;;13.79;41.90;97826.03;5052049;28;8846;-79
2024/01/19 02:14:21;;;;;;;;;5.00;5.00;;;;;13.72;41.96;97829.97;5057264;28;8868;-78
2024/01/19 02:16:52;;;;;;;;;7.00;7.00;;;;;13.85;41.70;97830.13;5070660;28;8867;-79
2024/01/19 02:19:21;;;;;;;;;9.80;6.60;;;;;13.61;42.38;97838.56;5053128;28;8894;-77
2024/01/19 02:21:50;;;;;;;;;10.40;8.60;;;;;13.32;42.86;97845.59;5072205;28;8948;-79
2024/01/19 02:24:22;;;;;;;;;11.00;7.40;;;;;13.59;43.02;97843.06;5072184;28;8852;-80
2024/01/19 02:26:51;;;;;;;;;7.00;6.20;;;;;13.43;44.31;97845.81;5068365;28;8842;-76
2024/01/19 02:29:20;;;;;;;;;6.40;5.80;;;;;13.36;44.68;97860.31;5018709;28;8850;-77
2024/01/19 02:31:49;;;;;;;;;10.20;9.20;;;;;13.23;45.70;97862.81;5034979;28;10108;-77
2024/01/19 02:34:18;;;;;;;;;8.20;6.60;;;;;13.08;46.14;97863.72;5033533;28;8830;-79
2024/01/19 02:36:47;;;;;;;;;9.00;8.00;;;;;13.01;46.97;97851.81;5034599;28;8849;-77
2024/01/19 02:39:16;;;;;;;;;8.00;6.80;;;;;13.16;47.26;97864.09;5033851;28;8984;-77
2024/01/19 02:41:47;;;;;;;;;7.20;6.00;;;;;13.20;47.75;97855.06;5074783;28;8906;-76
2024/01/19 02:44:15;;;;;;;;;5.80;5.80;;;;;13.21;47.95;97842.75;5074821;28;9051;-77
2024/01/19 02:46:45;;;;;;;;;4.00;4.00;;;;;13.18;49.21;97843.75;5054304;28;8863;-77
2024/01/19 02:49:13;;;;;;;;;3.20;3.20;;;;;13.16;49.30;97840.34;5072257;28;8903;-79
2024/01/19 02:51:42;;;;;;;;;4.00;3.00;;;;;12.86;49.94;97851.78;5071610;28;8884;-78
2024/01/19 02:54:11;;;;;;;;;7.20;6.00;;;;;12.95;49.95;97860.09;5071902;28;8843;-79
2024/01/19 02:56:40;;;;;;;;;5.60;5.60;;;;;13.01;50.27;97844.75;5052176;28;8840;-78
2024/01/19 02:59:12;;;;;;;;;5.00;4.60;;;;;13.17;50.58;97834.16;5053915;28;8867;-78
2024/01/19 03:01:41;;;;;;;;;5.00;5.00;;;;;12.70;50.21;97840.38;5071741;28;8859;-79
2024/01/19 03:04:10;;;;;;;;;4.80;4.40;;;;;12.87;50.66;97860.53;5072103;28;8856;-78
2024/01/19 03:06:39;;;;;;;;;6.00;5.40;;;;;12.92;50.94;97869.03;5061998;28;8881;-79
2024/01/19 03:09:08;;;;;;;;;4.00;4.00;;;;;12.89;51.74;97859.50;5051555;28;8880;-78
2024/01/19 03:11:37;;;;;;;;;4.60;4.60;;;;;11.88;53.64;97852.78;5066185;28;8848;-77
2024/01/19 03:14:06;;;;;;;;;5.60;5.00;;;;;11.70;54.41;97851.06;5036709;28;8839;-80
2024/01/19 03:16:41;;;;;;;;;6.00;5.00;;;;;11.89;54.29;97843.06;5033254;28;9654;-78
2024/01/19 03:19:11;;;;;;;;;6.00;6.00;;;;;11.57;55.51;97832.44;5032646;28;8854;-77
2024/01/19 03:21:40;;;;;;;;;4.20;4.20;;;;;11.21;56.72;97841.31;5050463;28;8869;-78
2024/01/19 03:24:08;;;;;;;;;4.00;4.00;;;;;11.04;57.59;97842.16;5032960;28;9648;-78
2024/01/19 03:26:39;;;;;;;;;4.20;3.00;;;;;11.19;57.81;97851.06;5008817;28;8904;-79
2024/01/19 03:29:08;;;;;;;;;5.60;5.60;;;;;11.66;56.27;97865.34;5032123;28;8862;-78
2024/01/19 03:31:38;;;;;;;;;5.00;4.00;;;;;11.89;55.99;97885.19;5033767;28;8834;-79
2024/01/19 03:34:07;;;;;;;;;6.00;4.20;;;;;12.15;55.16;97894.34;5032807;28;8881;-78
2024/01/19 03:36:37;;;;;;;;;7.40;4.80;;;;;12.31;55.06;97897.00;5033194;28;8858;-76
2024/01/19 03:39:07;;;;;;;;;6.00;6.00;;;;;12.40;54.46;97904.41;5051001;28;8862;-79
2024/01/19 03:41:36;;;;;;;;;7.40;6.80;;;;;12.57;54.30;97903.47;5023862;28;8865;-79
2024/01/19 03:44:05;;;;;;;;;5.20;5.20;;;;;12.69;53.88;97908.06;5031646;28;8963;-79
2024/01/19 03:46:34;;;;;;;;;6.60;6.20;;;;;12.80;54.81;97903.97;5023776;28;8863;-77
2024/01/19 03:49:10;;;;;;;;;5.40;5.40;;;;;12.92;54.33;97909.44;5069562;28;8859;-79
2024/01/19 03:51:39;;;;;;;;;3.20;3.20;;;;;12.93;54.49;97910.28;5070801;28;8836;-80
2024/01/19 03:54:08;;;;;;;;;6.20;6.20;;;;;12.78;54.39;97919.03;5048709;28;8854;-78
2024/01/19 03:56:38;;;;;;;;;7.60;6.60;;;;;12.59;55.25;97920.03;5033168;28;8904;-78
2024/01/19 03:59:07;;;;;;;;;7.20;7.20;;;;;12.66;55.25;97918.78;5050744;28;8854;-79
2024/01/19 04:01:36;;;;;;;;;7.00;5.40;;;;;12.20;56.84;97920.44;5016300;28;8838;-79
2024/01/19 04:04:05;;;;;;;;;6.40;6.00;;;;;11.70;59.16;97917.72;5032234;28;8893;-78
2024/01/19 04:06:35;;;;;;;;;7.00;6.00;;;;;11.99;59.07;97915.38;5018291;28;8877;-77
2024/01/19 04:09:04;;;;;;;;;7.00;7.00;;;;;11.76;59.52;97904.22;5060428;28;8868;-79
2024/01/19 04:11:34;;;;;;;;;4.20;4.20;;;;;11.84;58.82;97908.28;5036425;28;8911;-78
2024/01/19 04:14:03;;;;;;;;;4.80;4.80;;;;;11.69;59.38;97913.41;5057645;28;8876;-80
2024/01/19 04:16:32;;;;;;;;;6.20;5.40;;;;;11.91;58.62;97917.56;5071000;28;8843;-78
2024/01/19 04:19:01;;;;;;;;;3.00;3.00;;;;;11.92;59.21;97935.94;5052749;28;8867;-82
2024/01/19 04:21:31;;;;;;;;;6.00;5.00;;;;;12.01;58.64;97939.00;5071851;28;8863;-78
2024/01/19 04:24:01;;;;;;;;;5.80;5.60;;;;;12.03;58.61;97938.00;5068628;28;8898;-77
2024/01/19 04:26:31;;;;;;;;;6.00;6.00;;;;;11.95;58.58;97948.06;5052836;28;8846;-78
2024/01/19 04:28:59;;;;;;;;;8.20;8.20;;;;;11.18;62.58;97958.03;5054968;28;9059;-79
2024/01/19 04:31:28;;;;;;;;;6.60;6.60;;;;;10.34;63.85;98009.25;5016029;28;9635;-77
2024/01/19 04:33:57;;;;;;;;;8.40;7.60;;;;;10.08;67.69;98008.63;5048507;28;8850;-80
2024/01/19 04:36:26;;;;;;;;;5.40;5.40;;;;;9.79;69.87;98013.34;5032597;28;8919;-79
2024/01/19 04:38:55;;;;;;;;;5.60;4.20;;;;;9.56;70.61;98022.16;5034017;28;8878;-78
2024/01/19 04:41:25;;;;;;;;;7.60;6.40;;;;;9.38;72.67;98038.63;5053293;28;8911;-78
2024/01/19 04:43:54;;;;;;;;;8.80;7.60;;;;;9.08;73.96;98024.97;5049765;28;8869;-77
2024/01/19 04:46:23;;;;;;;;;10.00;9.60;;;;;9.17;73.47;98028.09;5032403;28;8842;-79
2024/01/19 04:48:52;;;;;;;;;7.00;7.00;;;;;9.34;72.75;98018.72;5032128;28;8846;-78
2024/01/19 04:51:21;;;;;;;;;12.00;10.20;;;;;9.28;72.43;98027.69;5049484;28;8862;-78
2024/01/19 04:53:50;;;;;;;;;8.00;8.00;;;;;8.85;74.76;98037.22;5065115;28;8974;-77
2024/01/19 04:56:19;;;;;;;;;11.00;10.00;;;;;8.83;74.21;98031.19;5049481;28;10053;-79
2024/01/19 04:58:49;;;;;;;;;9.40;7.80;;;;;9.02;73.95;98033.94;5012093;28;8840;-79
2024/01/19 05:01:18;;;;;;;;;12.00;11.20;;;;;9.15;72.45;98027.31;5067877;28;8835;-80
2024/01/19 05:03:47;;;;;;;;;10.00;9.00;;;;;9.14;72.67;98040.47;5058778;28;9580;-79
2024/01/19 05:06:16;;;;;;;;;12.20;9.40;;;;;9.43;71.40;98044.56;5049116;28;8858;-79
2024/01/19 05:08:45;;;;;;;;;12.00;11.00;;;;;9.60;70.25;98039.50;4998038;28;8888;-78
2024/01/19 05:11:14;;;;;;;;;9.40;9.40;;;;;10.00;68.61;98034.34;5031360;28;8870;-76
2024/01/19 05:13:44;;;;;;;;;19.80;19.00;;;;;10.08;67.45;98042.75;5048611;28;8842;-77
2024/01/19 05:16:15;;;;;;;;;68.00;51.75;;;;;10.38;66.64;98058.09;4998150;28;8854;-78
2024/01/19 05:18:44;;;;;;;;;15.20;15.00;;;;;9.99;67.90;98058.91;5031145;28;8905;-77
2024/01/19 05:21:13;;;;;;;;;12.60;12.40;;;;;9.71;68.82;98064.47;5068985;28;8847;-78
2024/01/19 05:23:42;;;;;;;;;15.80;14.40;;;;;9.55;69.79;98080.78;5043795;28;8876;-79
2024/01/19 05:26:11;;;;;;;;;14.20;12.20;;;;;9.21;71.13;98074.28;5029294;28;8860;-78
2024/01/19 05:28:41;;;;;;;;;21.80;19.40;;;;;9.61;69.75;98074.47;5051023;28;8850;-82
2024/01/19 05:31:10;;;;;;;;;31.00;30.25;;;;;9.96;68.36;98073.00;5011284;28;8862;-79
2024/01/19 05:33:40;;;;;;;;;21.00;20.40;;;;;10.23;67.28;98082.41;5009146;28;8878;-79
2024/01/19 05:36:10;;;;;;;;;12.00;12.00;;;;;10.26;66.32;98083.13;5011219;28;8880;-80
2024/01/19 05:38:38;;;;;;;;;18.20;17.60;;;;;9.93;67.30;98082.78;5026978;28;9647;-78
2024/01/19 05:41:07;;;;;;;;;14.40;13.60;;;;;9.81;68.22;98090.25;5024464;28;8850;-79
2024/01/19 05:43:36;;;;;;;;;22.40;19.80;;;;;9.55;69.14;98096.50;5030978;28;8844;-78
2024/01/19 05:46:05;;;;;;;;;20.00;19.00;;;;;9.24;70.86;98107.38;5028336;28;8851;-79
2024/01/19 05:48:34;;;;;;;;;15.40;15.00;;;;;8.63;73.20;98111.38;5010748;28;9010;-81
2024/01/19 05:51:10;;;;;;;;;18.00;16.20;;;;;8.60;73.09;98118.47;5029183;28;8847;-78
2024/01/19 05:53:39;;;;;;;;;17.80;17.80;;;;;8.92;71.90;98100.75;5028069;28;8917;-78
2024/01/19 05:56:08;;;;;;;;;16.40;15.80;;;;;9.22;70.64;98099.56;4990311;28;8969;-77
2024/01/19 05:58:37;;;;;;;;;19.80;18.20;;;;;9.48;69.44;98100.31;5020408;28;8873;-77
2024/01/19 06:01:06;;;;;;;;;14.20;13.00;;;;;9.66;68.39;98108.41;5009235;28;8870;-80
2024/01/19 06:03:35;;;;;;;;;18.80;18.80;;;;;9.64;68.42;98118.09;5007381;28;9021;-80
2024/01/19 06:06:06;;;;;;;;;19.00;16.80;;;;;9.72;68.00;98126.50;5015502;28;8862;-79
2024/01/19 06:08:36;;;;;;;;;25.20;24.00;;;;;9.71;67.59;98122.19;5007574;28;8865;-80
2024/01/19 06:11:06;;;;;;;;;24.40;20.20;;;;;9.79;67.35;98131.44;5016999;28;9617;-79
2024/01/19 06:13:34;;;;;;;;;23.20;22.40;;;;;9.44;68.76;98151.16;5015354;28;8945;-79
2024/01/19 06:16:04;;;;;;;;;25.00;20.80;;;;;9.08;69.55;98163.91;5008938;28;8936;-81
2024/01/19 06:18:34;;;;;;;;;27.20;25.20;;;;;7.39;76.96;98181.72;5024126;28;8850;-79
2024/01/19 06:21:09;;;;;;;;;21.20;19.40;;;;;7.77;75.76;98184.06;5009286;28;8866;-79
2024/01/19 06:23:39;;;;;;;;;29.60;24.20;;;;;8.06;74.25;98183.09;5014481;28;8848;-77
2024/01/19 06:26:09;;;;;;;;;26.80;23.40;;;;;8.26;73.13;98167.59;5027039;28;8859;-80
2024/01/19 06:28:38;;;;;;;;;31.00;27.20;;;;;8.41;71.97;98171.50;5026207;28;8911;-79
2024/01/19 06:31:10;;;;;;;;;29.80;28.20;;;;;8.38;71.83;98165.50;5034183;28;8988;-81
2024/01/19 06:33:40;;;;;;;;;22.20;22.00;;;;;8.32;71.52;98157.88;5043986;28;8870;-79
2024/01/19 06:36:10;;;;;;;;;28.80;26.60;;;;;8.53;70.38;98154.50;5035159;28;8939;-79
2024/01/19 06:38:41;;;;;;;;;25.00;23.60;;;;;8.51;69.67;98158.94;5043476;28;8866;-80
2024/01/19 06:41:10;;;;;;;;;25.20;24.60;;;;;8.69;68.98;98160.06;5034093;28;8880;-80
2024/01/19 06:43:39;;;;;;;;;33.00;30.20;;;;;8.59;68.38;98162.16;4994336;28;8927;-80
2024/01/19 06:46:08;;;;;;;;;31.00;29.80;;;;;8.41;68.99;98166.25;5028618;28;8870;-78
2024/01/19 06:48:37;;;;;;;;;32.40;29.80;;;;;8.37;68.38;98185.59;5045122;28;8948;-77
2024/01/19 06:51:07;;;;;;;;;26.80;25.60;;;;;8.55;68.22;98198.97;5036116;28;8956;-77
2024/01/19 06:53:36;;;;;;;;;31.80;31.60;;;;;8.62;67.58;98208.34;5030077;28;8872;-79
2024/01/19 06:56:07;;;;;;;;;32.80;29.80;;;;;8.77;66.77;98215.66;5030377;28;8951;-78
2024/01/19 06:58:38;;;;;;;;;28.60;26.40;;;;;8.35;66.21;98207.53;5031508;28;8968;-80
2024/01/19 07:01:07;;;;;;;;;32.00;29.40;;;;;8.26;67.01;98204.25;5032735;28;8915;-78
2024/01/19 07:03:36;;;;;;;;;31.20;29.40;;;;;8.22;66.92;98228.81;5048825;28;8874;-79
2024/01/19 07:06:05;;;;;;;;;31.80;28.20;;;;;8.29;65.47;98236.47;5015586;28;9069;-78
2024/01/19 07:08:35;;;;;;;;;33.60;30.20;;;;;8.33;65.53;98243.38;5000039;28;8850;-77
2024/01/19 07:11:04;;;;;;;;;33.80;32.60;;;;;7.98;65.21;98250.53;5032553;28;8882;-81
2024/01/19 07:13:35;;;;;;;;;37.40;35.40;;;;;6.45;71.01;98261.75;5031984;28;8829;-77
2024/01/19 07:16:04;;;;;;;;;36.20;33.20;;;;;5.37;76.08;98256.34;5048130;28;8909;-79
2024/01/19 07:18:33;;;;;;;;;34.00;31.60;;;;;5.29;76.42;98277.31;5048552;28;8849;-74
2024/01/19 07:21:02;;;;;;;;;43.00;38.25;;;;;5.01;78.28;98271.78;5050422;28;8867;-72
2024/01/19 07:23:31;;;;;;;;;39.25;36.50;;;;;5.10;77.84;98286.38;5055212;28;8859;-72
2024/01/19 07:26:00;;;;;;;;;46.00;39.50;;;;;5.28;76.45;98282.56;5048769;28;8877;-77
2024/01/19 07:28:29;;;;;;;;;43.40;39.00;;;;;5.26;75.17;98272.16;5053040;28;8840;-78
2024/01/19 07:30:59;;;;;;;;;47.25;41.75;;;;;4.46;77.37;98283.19;5046392;28;8992;-78
2024/01/19 07:33:29;;;;;;;;;56.00;46.00;;;;;4.17;76.88;98298.38;4995605;28;8840;-79
2024/01/19 07:36:01;;;;;;;;;54.00;42.25;;;;;3.32;78.96;98300.34;5028144;28;8963;-77
2024/01/19 07:38:30;;;;;;;;;57.25;45.00;;;;;2.93;80.58;98303.34;5039495;28;8862;-80
2024/01/19 07:40:59;;;;;;;;;45.25;41.50;;;;;2.77;80.53;98312.16;5008724;28;8932;-77
2024/01/19 07:43:29;;;;;;;;;46.50;42.50;;;;;2.29;82.03;98332.44;5006381;28;8868;-78
2024/01/19 07:45:59;;;;;;;;;56.50;47.25;;;;;2.11;81.13;98326.50;5009359;28;8880;-77
2024/01/19 07:48:28;;;;;;;;;53.75;46.00;;;;;2.28;79.86;98334.19;5027775;28;8898;-80
2024/01/19 07:50:57;;;;;;;;;54.25;44.00;;;;;2.13;81.77;98339.47;5026614;28;8840;-76
2024/01/19 07:53:26;;;;;;;;;58.75;46.50;;;;;2.25;81.31;98313.44;5027495;28;8876;-79
2024/01/19 07:55:55;;;;;;;;;60.50;46.00;;;;;2.71;80.87;98300.13;5044350;28;8872;-78
2024/01/19 07:58:24;;;;;;;;;63.00;51.75;;;;;3.16;78.84;98295.31;5030123;28;9578;-78
2024/01/19 08:00:53;;;;;;;;;57.00;47.25;;;;;3.27;77.26;98297.78;5012034;28;9704;-78
2024/01/19 08:03:25;;;;;;;;;64.50;53.00;;;;;2.76;78.36;98324.25;4995768;28;8898;-78
2024/01/19 08:05:54;;;;;;;;;62.50;52.50;;;;;2.33;79.55;98305.59;5029601;28;8876;-79
2024/01/19 08:08:23;;;;;;;;;55.00;46.25;;;;;2.46;79.33;98304.63;5051204;28;9013;-78
2024/01/19 08:10:52;;;;;;;;;59.75;49.00;;;;;2.17;80.23;98310.06;4992887;28;8854;-79
2024/01/19 08:13:21;;;;;;;;;52.25;44.75;;;;;2.03;79.36;98321.38;5074445;28;8828;-81
2024/01/19 08:15:50;;;;;;;;;59.00;47.25;;;;;1.82;80.42;98327.53;5040314;28;8892;-79
2024/01/19 08:18:19;;;;;;;;;60.75;49.50;;;;;1.69;80.88;98335.34;5069016;28;8858;-79
2024/01/19 08:20:50;;;;;;;;;61.25;51.75;;;;;1.57;81.01;98338.88;5071134;28;9684;-78
2024/01/19 08:23:19;;;;;;;;;62.00;51.25;;;;;1.68;80.55;98337.09;5037613;28;8893;-78
2024/01/19 08:25:48;;;;;;;;;57.00;46.75;;;;;1.45;81.22;98332.03;5000531;28;8944;-80
2024/01/19 08:28:17;;;;;;;;;48.50;43.75;;;;;1.32;80.94;98348.47;5050119;28;8878;-80
2024/01/19 08:30:47;;;;;;;;;54.75;44.50;;;;;1.42;80.71;98337.19;5061063;28;8870;-81
2024/01/19 08:33:16;;;;;;;;;61.50;50.75;;;;;1.37;81.25;98345.00;5035460;28;8878;-80
2024/01/19 08:35:46;;;;;;;;;58.00;48.25;;;;;1.48;80.78;98339.75;5070313;28;8876;-80
2024/01/19 08:38:16;;;;;;;;;62.50;52.25;;;;;1.37;80.00;98341.53;5035099;28;8856;-79
2024/01/19 08:40:45;;;;;;;;;55.75;46.50;;;;;1.16;80.30;98366.63;5026822;28;8906;-79
2024/01/19 08:43:15;;;;;;;;;56.25;45.50;;;;;1.05;80.68;98376.13;4977947;28;8925;-81
2024/01/19 08:45:43;;;;;;;;;59.75;49.50;;;;;1.08;80.29;98396.81;5026169;28;9749;-79
2024/01/19 08:48:13;;;;;;;;;62.00;51.75;;;;;1.05;79.97;98396.84;4992146;28;8846;-80
2024/01/19 08:50:44;;;;;;;;;58.25;48.00;;;;;0.98;80.04;98400.28;5005096;28;8875;-79
2024/01/19 08:53:13;;;;;;;;;58.50;46.00;;;;;1.12;79.06;98405.44;5014111;28;8887;-81
2024/01/19 08:55:43;;;;;;;;;59.00;48.25;;;;;1.14;77.94;98412.31;5008447;28;8868;-81
2024/01/19 08:58:12;;;;;;;;;46.75;42.75;;;;;1.09;79.25;98408.91;5037705;28;8863;-82
2024/01/19 09:00:42;;;;;;;;;62.25;51.25;;;;;1.49;77.38;98407.97;5024354;28;8889;-80
2024/01/19 09:03:11;;;;;;;;;50.75;42.25;;;;;1.22;77.12;98426.16;5008795;28;8856;-81
2024/01/19 09:05:40;;;;;;;;;58.50;46.75;;;;;0.94;77.07;98425.25;5040393;28;8886;-81
2024/01/19 09:08:10;;;;;;;;;57.25;46.75;;;;;1.28;76.07;98414.91;4991221;28;8846;-83
2024/01/19 09:10:39;;;;;;;;;48.00;43.50;;;;;1.13;75.63;98415.78;4967507;28;9601;-80
2024/01/19 09:13:09;;;;;;;;;61.25;51.00;;;;;1.02;76.74;98443.41;4983203;28;8863;-81
2024/01/19 09:15:38;;;;;;;;;67.00;53.50;;;;;0.78;78.40;98447.66;4952178;28;8987;-80
2024/01/19 09:18:08;;;;;;;;;57.75;48.25;;;;;0.90;77.58;98449.41;4971406;28;8914;-80
2024/01/19 09:20:37;;;;;;;;;46.25;40.25;;;;;0.31;78.33;98430.34;4972938;28;8882;-81
2024/01/19 09:23:06;;;;;;;;;47.00;42.75;;;;;0.28;79.04;98446.72;4969707;28;9677;-80
2024/01/19 09:25:35;;;;;;;;;48.00;41.50;;;;;-0.06;80.42;98466.41;4983311;28;8887;-82
2024/01/19 09:28:04;;;;;;;;;63.25;49.00;;;;;-0.26;80.98;98478.34;4987379;28;8891;-81
2024/01/19 09:30:34;;;;;;;;;56.50;45.25;;;;;-0.06;80.90;98458.66;4987480;28;8958;-80
2024/01/19 09:33:04;;;;;;;;;56.00;45.75;;;;;0.18;79.85;98441.50;4971209;28;8946;-79
2024/01/19 09:35:33;;;;;;;;;50.75;41.75;;;;;0.51;78.10;98447.66;4971334;28;8864;-81
2024/01/19 09:38:02;;;;;;;;;55.50;45.00;;;;;0.34;78.51;98465.69;4987545;28;8886;-81
2024/01/19 09:40:31;;;;;;;;;60.75;46.25;;;;;0.02;80.64;98485.38;4973396;28;9689;-81
2024/01/19 09:43:00;;;;;;;;;58.50;47.50;;;;;-0.20;82.80;98486.13;5032646;28;9726;-80
2024/01/19 09:45:42;;;;;;;;;53.50;47.75;;;;;-0.21;82.92;98482.69;4996403;28;8949;-80
2024/01/19 09:48:23;;;;;;;;;60.00;45.50;;;;;0.05;81.97;98476.81;5034156;28;8882;-79
2024/01/19 09:50:53;;;;;;;;;50.50;45.25;;;;;-0.21;82.42;98493.03;5050959;28;8864;-81
2024/01/19 09:53:27;;;;;;;;;56.00;49.00;;;;;-0.28;82.96;98508.47;4985418;28;8881;-81
2024/01/19 09:55:56;;;;;;;;;56.25;46.50;;;;;-0.39;82.87;98524.78;5032884;28;9000;-79
2024/01/19 09:58:26;;;;;;;;;54.25;47.25;;;;;-0.49;83.68;98515.22;5066070;28;8859;-80
2024/01/19 10:00:57;;;;;;;;;62.00;48.25;;;;;-0.72;84.30;98502.16;5049435;28;8937;-81
2024/01/19 10:03:28;;;;;;;;;66.25;49.75;;;;;-0.71;84.95;98534.84;5050723;28;8836;-81
2024/01/19 10:05:57;;;;;;;;;63.50;52.75;;;;;-0.61;85.31;98531.50;5068478;28;8910;-80
2024/01/19 10:08:27;;;;;;;;;54.00;45.25;;;;;-0.82;84.79;98546.78;5035150;28;8882;-79
2024/01/19 10:11:04;;;;;;;;;61.00;46.50;;;;;-1.24;86.34;98572.16;5058299;28;8893;-81
2024/01/19 10:13:33;;;;;;;;;52.50;44.25;;;;;-1.40;86.15;98557.41;5046179;28;8858;-82
2024/01/19 10:16:03;;;;;;;;;49.75;44.50;;;;;-1.13;85.26;98542.19;5062748;28;8874;-84
2024/01/19 10:18:32;;;;;;;;;32.25;30.00;;;;;-1.32;86.02;98572.06;5055809;28;8859;-80
2024/01/19 10:21:02;;;;;;;;;57.75;45.00;;;;;-1.01;84.66;98556.06;5034281;28;8894;-80
2024/01/19 10:23:32;;;;;;;;;46.00;42.75;;;;;-1.26;84.20;98547.22;5062964;28;8887;-81
2024/01/19 10:26:14;;;;;;;;;43.25;37.75;;;;;-1.24;84.26;98550.69;5065735;28;8881;-81
2024/01/19 10:28:43;;;;;;;;;49.50;45.25;;;;;-1.21;85.18;98559.31;5038739;28;8839;-81
2024/01/19 10:31:22;;;;;;;;;59.00;48.25;;;;;-1.25;85.22;98567.88;5059307;28;8863;-84
2024/01/19 10:33:53;;;;;;;;;55.25;45.75;;;;;-0.92;84.93;98566.47;5074029;28;9612;-82
2024/01/19 10:36:23;;;;;;;;;51.00;44.25;;;;;-1.15;85.33;98574.84;4989501;28;8956;-81
2024/01/19 10:38:52;;;;;;;;;41.75;38.75;;;;;-1.49;85.96;98587.34;4993686;28;8948;-81
2024/01/19 10:41:25;;;;;;;;;57.50;46.75;;;;;-1.27;87.35;98586.75;4949184;28;8895;-83
2024/01/19 10:44:10;;;;;;;;;58.50;47.75;;;;;-1.37;86.81;98615.00;4958064;28;8998;-80
2024/01/19 10:46:41;;;;;;;;;47.75;41.75;;;;;-1.68;88.15;98599.13;4974947;28;8858;-84
2024/01/19 10:49:12;;;;;;;;;48.25;43.50;;;;;-1.88;87.95;98609.19;4993350;28;8865;-84
2024/01/19 10:51:43;;;;;;;;;41.50;38.50;;;;;-1.77;88.35;98624.81;4990095;28;8906;-81
2024/01/19 10:54:20;;;;;;;;;41.75;33.00;;;;;-1.78;88.11;98617.91;4974347;28;8884;-84
2024/01/19 10:56:49;;;;;;;;;51.75;43.50;;;;;-1.72;88.85;98640.31;4970639;28;8929;-81
2024/01/19 10:59:18;;;;;;;;;61.25;46.25;;;;;-1.72;89.10;98653.19;4958039;28;9659;-80
2024/01/19 11:01:58;;;;;;;;;52.50;46.25;;;;;-2.01;88.89;98653.66;4971294;28;8874;-81
2024/01/19 11:04:28;;;;;;;;;39.25;37.25;;;;;-1.89;89.53;98660.69;4960797;28;8866;-85
2024/01/19 11:06:57;;;;;;;;;40.75;33.25;;;;;-1.96;89.60;98689.75;4964398;28;9018;-81
2024/01/19 11:09:27;;;;;;;;;36.75;34.25;;;;;-2.00;90.50;98675.97;4972160;28;8987;-85
2024/01/19 11:11:58;;;;;;;;;42.50;38.50;;;;;-1.90;90.75;98692.41;4945758;28;8856;-81
2024/01/19 11:14:30;;;;;;;;;45.75;39.75;;;;;-1.86;90.73;98689.06;4957816;28;8877;-83
2024/01/19 11:17:00;;;;;;;;;45.50;41.25;;;;;-1.85;90.15;98688.22;4940244;28;8833;-81
2024/01/19 11:19:31;;;;;;;;;71.50;56.75;;;;;-2.00;90.73;98706.88;4936530;28;8863;-84
2024/01/19 11:22:00;;;;;;;;;46.00;41.75;;;;;-2.08;90.79;98717.03;4973018;28;8980;-84
2024/01/19 11:24:37;;;;;;;;;60.50;49.00;;;;;-2.11;91.14;98719.59;4955501;28;9137;-83
2024/01/19 11:27:19;;;;;;;;;64.25;48.50;;;;;-1.94;90.57;98706.09;4981616;28;9640;-81
2024/01/19 11:30:00;;;;;;;;;43.00;40.25;;;;;-1.96;90.38;98700.91;5021187;28;9555;-83
2024/01/19 11:32:31;;;;;;;;;59.25;49.75;;;;;-1.91;90.38;98737.06;5044442;28;9696;-81
2024/01/19 11:35:00;;;;;;;;;50.25;45.25;;;;;-1.88;90.82;98743.13;5055253;28;8878;-83
2024/01/19 11:37:47;;;;;;;;;57.75;45.50;;;;;-1.93;90.76;98743.91;5033931;28;8870;-85
2024/01/19 11:40:48;;;;;;;;;38.75;36.00;;;;;-1.94;89.43;98750.78;5028142;28;8904;-83
2024/01/19 11:43:39;;;;;;;;;50.75;46.50;;;;;-1.69;89.10;98757.19;4973794;28;8996;-82
2024/01/19 11:46:09;;;;;;;;;30.50;24.75;;;;;-1.94;89.11;98750.78;5007731;28;8874;-83
2024/01/19 11:48:45;;;;;;;;;42.50;39.50;;;;;-2.04;89.92;98756.59;4959832;28;9557;-82